sensor_id;sensor_type;location;lat;lon;timestamp;pressure;altitude;pressure_sealevel;temperature;humidity
24788;BME280;12883;52.662;5.196;2023-03-26T00:00:41;100638.34;;;8.98;100.00
24788;BME280;12883;52.662;5.196;2023-03-26T00:03:11;100690.88;;;9.22;100.00
24788;BME280;12883;52.662;5.196;2023-03-26T00:05:40;100666.97;;;9.16;100.00
24788;BME280;12883;52.662;5.196;2023-03-26T00:08:07;100677.47;;;9.30;100.00
24788;BME280;12883;52.662;5.196;2023-03-26T00:10:37;100680.53;;;9.27;100.00
24788;BME280;12883;52.662;5.196;2023-03-26T00:13:04;100688.84;;;9.24;100.00
24788;BME280;12883;52.662;5.196;2023-03-26T00:15:29;100685.81;;;9.27;100.00
24788;BME280;12883;52.662;5.196;2023-03-26T00:17:55;100687.81;;;9.25;100.00
24788;BME280;12883;52.662;5.196;2023-03-26T00:20:21;100683.53;;;9.24;100.00
24788;BME280;12883;52.662;5.196;2023-03-26T00:22:47;100687.19;;;9.23;100.00
24788;BME280;12883;52.662;5.196;2023-03-26T00:25:12;100684.41;;;9.31;100.00
24788;BME280;12883;52.662;5.196;2023-03-26T00:27:38;100684.97;;;9.27;100.00
24788;BME280;12883;52.662;5.196;2023-03-26T00:30:04;100673.97;;;9.23;100.00
24788;BME280;12883;52.662;5.196;2023-03-26T00:32:30;100685.84;;;9.34;100.00
24788;BME280;12883;52.662;5.196;2023-03-26T00:34:56;100678.09;;;9.32;100.00
24788;BME280;12883;52.662;5.196;2023-03-26T00:37:22;100690.09;;;9.28;100.00
24788;BME280;12883;52.662;5.196;2023-03-26T00:39:54;100687.00;;;9.25;100.00
24788;BME280;12883;52.662;5.196;2023-03-26T00:42:23;100691.09;;;9.27;100.00
24788;BME280;12883;52.662;5.196;2023-03-26T00:44:49;100683.28;;;9.19;100.00
24788;BME280;12883;52.662;5.196;2023-03-26T00:47:19;100686.09;;;9.11;100.00
24788;BME280;12883;52.662;5.196;2023-03-26T00:49:45;100661.56;;;9.24;100.00
24788;BME280;12883;52.662;5.196;2023-03-26T00:52:11;100666.31;;;9.07;100.00
24788;BME280;12883;52.662;5.196;2023-03-26T00:54:36;100627.34;;;8.95;100.00
24788;BME280;12883;52.662;5.196;2023-03-26T00:57:02;100649.19;;;9.03;100.00
24788;BME280;12883;52.662;5.196;2023-03-26T00:59:31;100653.47;;;9.04;100.00
24788;BME280;12883;52.662;5.196;2023-03-26T01:02:00;100653.97;;;9.14;100.00
24788;BME280;12883;52.662;5.196;2023-03-26T01:04:32;100647.88;;;9.20;100.00
24788;BME280;12883;52.662;5.196;2023-03-26T01:07:08;100632.38;;;9.17;100.00
24788;BME280;12883;52.662;5.196;2023-03-26T01:09:38;100643.56;;;9.13;100.00
24788;BME280;12883;52.662;5.196;2023-03-26T01:12:10;100641.44;;;9.02;100.00
24788;BME280;12883;52.662;5.196;2023-03-26T01:14:38;100634.28;;;8.96;100.00
24788;BME280;12883;52.662;5.196;2023-03-26T01:17:05;100636.44;;;9.13;100.00
24788;BME280;12883;52.662;5.196;2023-03-26T01:22:17;100621.34;;;9.14;100.00
24788;BME280;12883;52.662;5.196;2023-03-26T01:24:43;100619.91;;;9.11;100.00
24788;BME280;12883;52.662;5.196;2023-03-26T01:27:34;100622.13;;;9.08;100.00
24788;BME280;12883;52.662;5.196;2023-03-26T01:30:10;100620.69;;;9.05;100.00
24788;BME280;12883;52.662;5.196;2023-03-26T01:32:54;100607.28;;;9.07;100.00
24788;BME280;12883;52.662;5.196;2023-03-26T01:41:09;100583.22;;;8.68;100.00
24788;BME280;12883;52.662;5.196;2023-03-26T01:43:53;100608.59;;;8.90;100.00
24788;BME280;12883;52.662;5.196;2023-03-26T01:46:24;100603.69;;;8.87;100.00
24788;BME280;12883;52.662;5.196;2023-03-26T01:48:50;100609.03;;;8.93;100.00
24788;BME280;12883;52.662;5.196;2023-03-26T01:51:34;100597.63;;;8.93;100.00
24788;BME280;12883;52.662;5.196;2023-03-26T01:54:01;100596.22;;;8.97;100.00
24788;BME280;12883;52.662;5.196;2023-03-26T01:56:47;100589.53;;;9.01;100.00
24788;BME280;12883;52.662;5.196;2023-03-26T02:01:59;100584.22;;;9.01;100.00
24788;BME280;12883;52.662;5.196;2023-03-26T02:04:58;100578.84;;;8.88;100.00
24788;BME280;12883;52.662;5.196;2023-03-26T02:10:09;100581.22;;;8.76;100.00
24788;BME280;12883;52.662;5.196;2023-03-26T02:12:37;100573.94;;;8.78;100.00
24788;BME280;12883;52.662;5.196;2023-03-26T02:15:03;100576.75;;;8.77;100.00
24788;BME280;12883;52.662;5.196;2023-03-26T02:17:29;100561.47;;;8.72;100.00
24788;BME280;12883;52.662;5.196;2023-03-26T02:19:56;100560.81;;;8.70;100.00
24788;BME280;12883;52.662;5.196;2023-03-26T02:22:22;100558.72;;;8.59;100.00
24788;BME280;12883;52.662;5.196;2023-03-26T02:24:54;100553.44;;;8.59;100.00
24788;BME280;12883;52.662;5.196;2023-03-26T02:27:19;100512.97;;;8.31;100.00
24788;BME280;12883;52.662;5.196;2023-03-26T02:29:45;100538.28;;;8.47;100.00
24788;BME280;12883;52.662;5.196;2023-03-26T02:32:12;100534.88;;;8.25;100.00
24788;BME280;12883;52.662;5.196;2023-03-26T02:34:41;100493.59;;;8.03;100.00
24788;BME280;12883;52.662;5.196;2023-03-26T02:37:07;100529.94;;;8.22;100.00
24788;BME280;12883;52.662;5.196;2023-03-26T02:39:32;100524.91;;;8.06;100.00
24788;BME280;12883;52.662;5.196;2023-03-26T02:41:58;100517.13;;;7.98;100.00
24788;BME280;12883;52.662;5.196;2023-03-26T02:44:23;100521.91;;;7.88;100.00
24788;BME280;12883;52.662;5.196;2023-03-26T02:46:49;100482.78;;;7.56;100.00
24788;BME280;12883;52.662;5.196;2023-03-26T02:49:15;100515.97;;;7.86;100.00
24788;BME280;12883;52.662;5.196;2023-03-26T02:51:40;100514.66;;;7.76;100.00
24788;BME280;12883;52.662;5.196;2023-03-26T02:54:06;100500.66;;;7.75;100.00
24788;BME280;12883;52.662;5.196;2023-03-26T02:56:31;100511.88;;;7.63;100.00
24788;BME280;12883;52.662;5.196;2023-03-26T02:58:57;100506.09;;;7.53;100.00
24788;BME280;12883;52.662;5.196;2023-03-26T03:01:22;100501.19;;;7.50;100.00
24788;BME280;12883;52.662;5.196;2023-03-26T03:03:48;100500.72;;;7.46;100.00
24788;BME280;12883;52.662;5.196;2023-03-26T03:06:14;100493.16;;;7.37;100.00
24788;BME280;12883;52.662;5.196;2023-03-26T03:08:41;100503.88;;;7.35;100.00
24788;BME280;12883;52.662;5.196;2023-03-26T03:11:18;100465.47;;;6.97;100.00
24788;BME280;12883;52.662;5.196;2023-03-26T03:13:46;100497.88;;;7.27;100.00
24788;BME280;12883;52.662;5.196;2023-03-26T03:16:11;100489.78;;;7.28;100.00
24788;BME280;12883;52.662;5.196;2023-03-26T03:18:37;100496.28;;;7.11;100.00
24788;BME280;12883;52.662;5.196;2023-03-26T03:21:03;100479.53;;;7.04;100.00
24788;BME280;12883;52.662;5.196;2023-03-26T03:23:29;100495.47;;;7.11;100.00
24788;BME280;12883;52.662;5.196;2023-03-26T03:25:56;100483.28;;;6.95;100.00
24788;BME280;12883;52.662;5.196;2023-03-26T03:28:23;100490.09;;;7.04;100.00
24788;BME280;12883;52.662;5.196;2023-03-26T03:30:48;100493.84;;;6.95;100.00
24788;BME280;12883;52.662;5.196;2023-03-26T03:33:18;100499.03;;;6.89;100.00
24788;BME280;12883;52.662;5.196;2023-03-26T03:35:45;100504.88;;;6.84;100.00
24788;BME280;12883;52.662;5.196;2023-03-26T03:38:12;100497.59;;;6.86;100.00
24788;BME280;12883;52.662;5.196;2023-03-26T03:40:37;100494.31;;;6.84;100.00
24788;BME280;12883;52.662;5.196;2023-03-26T03:43:02;100491.31;;;6.73;100.00
24788;BME280;12883;52.662;5.196;2023-03-26T03:45:28;100455.25;;;6.44;100.00
24788;BME280;12883;52.662;5.196;2023-03-26T03:47:53;100484.22;;;6.73;100.00
24788;BME280;12883;52.662;5.196;2023-03-26T03:50:18;100496.69;;;6.79;100.00
24788;BME280;12883;52.662;5.196;2023-03-26T03:52:44;100495.50;;;6.67;100.00
24788;BME280;12883;52.662;5.196;2023-03-26T03:55:10;100492.88;;;6.67;100.00
24788;BME280;12883;52.662;5.196;2023-03-26T03:57:38;100487.97;;;6.64;100.00
24788;BME280;12883;52.662;5.196;2023-03-26T04:00:05;100473.03;;;6.42;100.00
24788;BME280;12883;52.662;5.196;2023-03-26T04:02:33;100474.31;;;6.46;100.00
24788;BME280;12883;52.662;5.196;2023-03-26T04:05:00;100491.41;;;6.50;100.00
24788;BME280;12883;52.662;5.196;2023-03-26T04:07:27;100485.94;;;6.52;100.00
24788;BME280;12883;52.662;5.196;2023-03-26T04:09:55;100498.88;;;6.47;100.00
24788;BME280;12883;52.662;5.196;2023-03-26T04:12:21;100492.03;;;6.38;100.00
24788;BME280;12883;52.662;5.196;2023-03-26T04:14:47;100503.13;;;6.48;100.00
24788;BME280;12883;52.662;5.196;2023-03-26T04:17:12;100498.66;;;6.48;100.00
24788;BME280;12883;52.662;5.196;2023-03-26T04:19:39;100494.06;;;6.50;100.00
24788;BME280;12883;52.662;5.196;2023-03-26T04:22:05;100498.22;;;6.45;100.00
24788;BME280;12883;52.662;5.196;2023-03-26T04:24:31;100487.69;;;6.59;100.00
24788;BME280;12883;52.662;5.196;2023-03-26T04:27:02;100488.59;;;6.66;100.00
24788;BME280;12883;52.662;5.196;2023-03-26T04:29:33;100484.03;;;6.60;100.00
24788;BME280;12883;52.662;5.196;2023-03-26T04:32:02;100480.06;;;6.64;100.00
24788;BME280;12883;52.662;5.196;2023-03-26T04:34:32;100481.13;;;6.70;100.00
24788;BME280;12883;52.662;5.196;2023-03-26T04:37:00;100476.31;;;6.73;100.00
24788;BME280;12883;52.662;5.196;2023-03-26T04:39:26;100474.69;;;6.72;100.00
24788;BME280;12883;52.662;5.196;2023-03-26T04:41:54;100450.59;;;6.61;100.00
24788;BME280;12883;52.662;5.196;2023-03-26T04:44:19;100472.84;;;6.73;100.00
24788;BME280;12883;52.662;5.196;2023-03-26T04:46:47;100473.06;;;6.71;100.00
24788;BME280;12883;52.662;5.196;2023-03-26T04:49:13;100462.69;;;6.84;100.00
24788;BME280;12883;52.662;5.196;2023-03-26T04:51:39;100461.75;;;6.77;100.00
24788;BME280;12883;52.662;5.196;2023-03-26T04:54:12;100456.94;;;6.81;100.00
24788;BME280;12883;52.662;5.196;2023-03-26T04:59:16;100446.69;;;6.71;100.00
24788;BME280;12883;52.662;5.196;2023-03-26T05:01:43;100450.75;;;6.88;100.00
24788;BME280;12883;52.662;5.196;2023-03-26T05:04:11;100445.75;;;6.93;100.00
24788;BME280;12883;52.662;5.196;2023-03-26T05:06:38;100439.91;;;6.98;100.00
24788;BME280;12883;52.662;5.196;2023-03-26T05:09:04;100439.06;;;7.12;100.00
24788;BME280;12883;52.662;5.196;2023-03-26T05:11:29;100423.22;;;7.12;100.00
24788;BME280;12883;52.662;5.196;2023-03-26T05:13:54;100447.59;;;7.14;100.00
24788;BME280;12883;52.662;5.196;2023-03-26T05:16:21;100447.69;;;7.20;100.00
24788;BME280;12883;52.662;5.196;2023-03-26T05:18:48;100435.94;;;7.23;100.00
24788;BME280;12883;52.662;5.196;2023-03-26T05:21:13;100433.63;;;7.34;100.00
24788;BME280;12883;52.662;5.196;2023-03-26T05:23:39;100430.44;;;7.39;100.00
24788;BME280;12883;52.662;5.196;2023-03-26T05:26:04;100430.25;;;7.40;100.00
24788;BME280;12883;52.662;5.196;2023-03-26T05:28:31;100429.91;;;7.50;100.00
24788;BME280;12883;52.662;5.196;2023-03-26T05:30:57;100424.84;;;7.48;100.00
24788;BME280;12883;52.662;5.196;2023-03-26T05:33:22;100426.06;;;7.52;100.00
24788;BME280;12883;52.662;5.196;2023-03-26T05:36:02;100430.34;;;7.53;100.00
24788;BME280;12883;52.662;5.196;2023-03-26T05:38:28;100417.53;;;7.50;100.00
24788;BME280;12883;52.662;5.196;2023-03-26T05:41:03;100422.63;;;7.52;100.00
24788;BME280;12883;52.662;5.196;2023-03-26T05:43:30;100412.56;;;7.62;100.00
24788;BME280;12883;52.662;5.196;2023-03-26T05:45:55;100410.75;;;7.62;100.00
24788;BME280;12883;52.662;5.196;2023-03-26T05:48:21;100412.94;;;7.59;100.00
24788;BME280;12883;52.662;5.196;2023-03-26T05:50:48;100405.34;;;7.70;100.00
24788;BME280;12883;52.662;5.196;2023-03-26T05:53:13;100398.44;;;7.69;100.00
24788;BME280;12883;52.662;5.196;2023-03-26T05:55:39;100394.53;;;7.65;100.00
24788;BME280;12883;52.662;5.196;2023-03-26T05:58:04;100404.06;;;7.66;100.00
24788;BME280;12883;52.662;5.196;2023-03-26T06:00:30;100389.94;;;7.74;100.00
24788;BME280;12883;52.662;5.196;2023-03-26T06:02:55;100388.41;;;7.86;100.00
24788;BME280;12883;52.662;5.196;2023-03-26T06:05:21;100383.44;;;7.76;100.00
24788;BME280;12883;52.662;5.196;2023-03-26T06:07:46;100378.84;;;7.85;100.00
24788;BME280;12883;52.662;5.196;2023-03-26T06:10:12;100382.91;;;7.87;100.00
24788;BME280;12883;52.662;5.196;2023-03-26T06:12:37;100381.69;;;7.83;100.00
24788;BME280;12883;52.662;5.196;2023-03-26T06:15:03;100371.97;;;7.90;100.00
24788;BME280;12883;52.662;5.196;2023-03-26T06:17:28;100375.66;;;7.96;100.00
24788;BME280;12883;52.662;5.196;2023-03-26T06:19:54;100375.84;;;7.94;100.00
24788;BME280;12883;52.662;5.196;2023-03-26T06:22:19;100376.66;;;7.95;100.00
24788;BME280;12883;52.662;5.196;2023-03-26T06:24:44;100364.66;;;7.92;100.00
24788;BME280;12883;52.662;5.196;2023-03-26T06:27:10;100391.34;;;8.04;100.00
24788;BME280;12883;52.662;5.196;2023-03-26T06:29:35;100384.28;;;8.11;100.00
24788;BME280;12883;52.662;5.196;2023-03-26T06:32:01;100387.00;;;8.17;100.00
24788;BME280;12883;52.662;5.196;2023-03-26T06:34:26;100389.41;;;8.19;100.00
24788;BME280;12883;52.662;5.196;2023-03-26T06:36:51;100391.91;;;8.20;100.00
24788;BME280;12883;52.662;5.196;2023-03-26T06:39:18;100393.78;;;8.26;100.00
24788;BME280;12883;52.662;5.196;2023-03-26T06:41:43;100388.72;;;8.31;100.00
24788;BME280;12883;52.662;5.196;2023-03-26T06:44:09;100390.97;;;8.34;100.00
24788;BME280;12883;52.662;5.196;2023-03-26T06:46:35;100331.59;;;8.03;100.00
24788;BME280;12883;52.662;5.196;2023-03-26T06:49:01;100389.19;;;8.41;100.00
24788;BME280;12883;52.662;5.196;2023-03-26T06:51:26;100404.06;;;8.49;100.00
24788;BME280;12883;52.662;5.196;2023-03-26T06:53:52;100404.88;;;8.49;100.00
24788;BME280;12883;52.662;5.196;2023-03-26T06:56:17;100405.53;;;8.51;100.00
24788;BME280;12883;52.662;5.196;2023-03-26T06:58:42;100411.38;;;8.47;100.00
24788;BME280;12883;52.662;5.196;2023-03-26T07:01:08;100399.81;;;8.54;100.00
24788;BME280;12883;52.662;5.196;2023-03-26T07:03:33;100389.25;;;8.54;100.00
24788;BME280;12883;52.662;5.196;2023-03-26T07:05:58;100389.50;;;8.59;100.00
24788;BME280;12883;52.662;5.196;2023-03-26T07:08:23;100401.69;;;8.60;100.00
24788;BME280;12883;52.662;5.196;2023-03-26T07:10:49;100394.19;;;8.64;100.00
24788;BME280;12883;52.662;5.196;2023-03-26T07:13:14;100397.25;;;8.67;100.00
24788;BME280;12883;52.662;5.196;2023-03-26T07:15:40;100401.72;;;8.67;100.00
24788;BME280;12883;52.662;5.196;2023-03-26T07:18:05;100401.13;;;8.71;100.00
24788;BME280;12883;52.662;5.196;2023-03-26T07:20:31;100404.56;;;8.65;100.00
24788;BME280;12883;52.662;5.196;2023-03-26T07:22:57;100391.97;;;8.67;100.00
24788;BME280;12883;52.662;5.196;2023-03-26T07:25:23;100394.84;;;8.72;100.00
24788;BME280;12883;52.662;5.196;2023-03-26T07:33:25;100403.81;;;8.84;100.00
24788;BME280;12883;52.662;5.196;2023-03-26T07:36:05;100403.81;;;8.84;100.00
24788;BME280;12883;52.662;5.196;2023-03-26T07:38:47;100388.34;;;8.88;100.00
24788;BME280;12883;52.662;5.196;2023-03-26T07:44:03;100406.69;;;8.83;100.00
24788;BME280;12883;52.662;5.196;2023-03-26T07:46:33;100409.09;;;8.84;100.00
24788;BME280;12883;52.662;5.196;2023-03-26T07:49:01;100401.38;;;8.83;100.00
24788;BME280;12883;52.662;5.196;2023-03-26T07:51:29;100411.75;;;8.84;100.00
24788;BME280;12883;52.662;5.196;2023-03-26T07:53:55;100417.28;;;8.89;100.00
24788;BME280;12883;52.662;5.196;2023-03-26T07:56:41;100410.78;;;8.92;100.00
24788;BME280;12883;52.662;5.196;2023-03-26T07:59:31;100411.97;;;8.89;100.00
24788;BME280;12883;52.662;5.196;2023-03-26T08:08:04;100418.31;;;8.95;100.00
24788;BME280;12883;52.662;5.196;2023-03-26T08:10:56;100409.16;;;8.97;100.00
24788;BME280;12883;52.662;5.196;2023-03-26T08:13:38;100419.19;;;9.15;100.00
24788;BME280;12883;52.662;5.196;2023-03-26T08:19:35;100423.09;;;9.25;100.00
24788;BME280;12883;52.662;5.196;2023-03-26T08:24:50;100370.47;;;8.90;100.00
24788;BME280;12883;52.662;5.196;2023-03-26T08:27:42;100427.75;;;9.23;100.00
24788;BME280;12883;52.662;5.196;2023-03-26T08:30:21;100428.97;;;9.21;100.00
24788;BME280;12883;52.662;5.196;2023-03-26T08:32:58;100429.75;;;9.08;100.00
24788;BME280;12883;52.662;5.196;2023-03-26T08:35:25;100433.84;;;9.17;100.00
24788;BME280;12883;52.662;5.196;2023-03-26T08:37:51;100419.56;;;9.05;100.00
24788;BME280;12883;52.662;5.196;2023-03-26T08:54:52;100442.25;;;9.27;100.00
24788;BME280;12883;52.662;5.196;2023-03-26T08:59:58;100445.50;;;9.29;100.00
24788;BME280;12883;52.662;5.196;2023-03-26T09:03:05;100448.38;;;9.34;100.00
24788;BME280;12883;52.662;5.196;2023-03-26T09:11:57;100436.53;;;9.37;100.00
24788;BME280;12883;52.662;5.196;2023-03-26T09:14:33;100431.06;;;9.38;100.00
24788;BME280;12883;52.662;5.196;2023-03-26T09:25:27;100439.03;;;9.45;100.00
24788;BME280;12883;52.662;5.196;2023-03-26T09:28:35;100446.75;;;9.46;100.00
24788;BME280;12883;52.662;5.196;2023-03-26T09:42:01;100456.31;;;9.41;100.00
24788;BME280;12883;52.662;5.196;2023-03-26T09:58:02;100456.94;;;9.36;100.00
24788;BME280;12883;52.662;5.196;2023-03-26T10:03:53;100458.50;;;9.24;100.00
24788;BME280;12883;52.662;5.196;2023-03-26T10:06:43;100456.69;;;9.31;100.00
24788;BME280;12883;52.662;5.196;2023-03-26T10:09:39;100459.13;;;9.26;100.00
24788;BME280;12883;52.662;5.196;2023-03-26T10:12:34;100465.91;;;9.35;100.00
24788;BME280;12883;52.662;5.196;2023-03-26T10:20:41;100471.19;;;9.42;100.00
24788;BME280;12883;52.662;5.196;2023-03-26T10:25:57;100469.13;;;9.31;100.00
24788;BME280;12883;52.662;5.196;2023-03-26T10:28:46;100464.66;;;9.31;100.00
24788;BME280;12883;52.662;5.196;2023-03-26T10:31:47;100463.88;;;9.50;100.00
24788;BME280;12883;52.662;5.196;2023-03-26T10:40:04;100494.00;;;9.43;100.00
24788;BME280;12883;52.662;5.196;2023-03-26T10:43:09;100485.47;;;9.47;100.00
24788;BME280;12883;52.662;5.196;2023-03-26T10:45:58;100497.09;;;9.59;100.00
24788;BME280;12883;52.662;5.196;2023-03-26T10:56:48;100507.09;;;9.51;100.00
24788;BME280;12883;52.662;5.196;2023-03-26T10:59:15;100496.50;;;9.51;100.00
24788;BME280;12883;52.662;5.196;2023-03-26T11:04:51;100500.16;;;9.62;100.00
24788;BME280;12883;52.662;5.196;2023-03-26T11:07:38;100520.16;;;9.65;100.00
24788;BME280;12883;52.662;5.196;2023-03-26T11:10:19;100498.50;;;9.48;100.00
24788;BME280;12883;52.662;5.196;2023-03-26T11:13:12;100512.44;;;9.70;100.00
24788;BME280;12883;52.662;5.196;2023-03-26T11:15:46;100513.84;;;9.66;100.00
24788;BME280;12883;52.662;5.196;2023-03-26T11:18:38;100525.06;;;9.68;100.00
24788;BME280;12883;52.662;5.196;2023-03-26T11:26:35;100522.63;;;9.86;100.00
24788;BME280;12883;52.662;5.196;2023-03-26T11:32:19;100530.03;;;10.03;100.00
24788;BME280;12883;52.662;5.196;2023-03-26T11:34:57;100530.81;;;9.91;100.00
24788;BME280;12883;52.662;5.196;2023-03-26T11:37:34;100526.75;;;10.01;100.00
24788;BME280;12883;52.662;5.196;2023-03-26T11:40:11;100512.84;;;9.80;100.00
24788;BME280;12883;52.662;5.196;2023-03-26T11:42:40;100523.91;;;10.16;100.00
24788;BME280;12883;52.662;5.196;2023-03-26T11:45:13;100513.09;;;10.04;100.00
24788;BME280;12883;52.662;5.196;2023-03-26T11:47:48;100541.06;;;10.13;100.00
24788;BME280;12883;52.662;5.196;2023-03-26T11:50:22;100530.88;;;10.23;100.00
24788;BME280;12883;52.662;5.196;2023-03-26T11:52:49;100491.28;;;10.22;100.00
24788;BME280;12883;52.662;5.196;2023-03-26T11:55:15;100538.41;;;10.46;100.00
24788;BME280;12883;52.662;5.196;2023-03-26T11:57:45;100545.53;;;10.58;100.00
24788;BME280;12883;52.662;5.196;2023-03-26T12:00:16;100550.44;;;10.61;100.00
24788;BME280;12883;52.662;5.196;2023-03-26T12:02:46;100546.78;;;10.62;100.00
24788;BME280;12883;52.662;5.196;2023-03-26T12:05:19;100548.41;;;10.63;100.00
24788;BME280;12883;52.662;5.196;2023-03-26T12:08:01;100552.09;;;10.49;100.00
24788;BME280;12883;52.662;5.196;2023-03-26T12:10:37;100554.09;;;10.67;100.00
24788;BME280;12883;52.662;5.196;2023-03-26T12:15:57;100547.13;;;10.85;100.00
24788;BME280;12883;52.662;5.196;2023-03-26T12:18:26;100548.78;;;10.80;100.00
24788;BME280;12883;52.662;5.196;2023-03-26T12:21:15;100555.50;;;10.89;100.00
24788;BME280;12883;52.662;5.196;2023-03-26T12:26:33;100547.56;;;10.76;100.00
24788;BME280;12883;52.662;5.196;2023-03-26T12:29:26;100569.38;;;10.91;100.00
24788;BME280;12883;52.662;5.196;2023-03-26T12:32:02;100558.97;;;10.89;100.00
24788;BME280;12883;52.662;5.196;2023-03-26T12:34:33;100543.81;;;11.03;100.00
24788;BME280;12883;52.662;5.196;2023-03-26T12:36:59;100570.78;;;11.06;100.00
24788;BME280;12883;52.662;5.196;2023-03-26T12:41:56;100568.44;;;11.36;100.00
24788;BME280;12883;52.662;5.196;2023-03-26T12:44:25;100572.28;;;11.40;100.00
24788;BME280;12883;52.662;5.196;2023-03-26T12:46:50;100582.09;;;11.46;100.00
24788;BME280;12883;52.662;5.196;2023-03-26T12:49:19;100589.91;;;11.41;100.00
24788;BME280;12883;52.662;5.196;2023-03-26T12:52:07;100588.31;;;11.20;100.00
24788;BME280;12883;52.662;5.196;2023-03-26T13:08:37;100609.56;;;11.27;100.00
24788;BME280;12883;52.662;5.196;2023-03-26T13:14:03;100611.53;;;11.38;100.00
24788;BME280;12883;52.662;5.196;2023-03-26T13:16:45;100616.88;;;11.38;100.00
24788;BME280;12883;52.662;5.196;2023-03-26T13:22:26;100625.66;;;11.38;100.00
24788;BME280;12883;52.662;5.196;2023-03-26T13:30:36;100632.03;;;11.24;100.00
24788;BME280;12883;52.662;5.196;2023-03-26T13:36:18;100630.16;;;11.38;100.00
24788;BME280;12883;52.662;5.196;2023-03-26T13:39:23;100633.22;;;11.28;100.00
24788;BME280;12883;52.662;5.196;2023-03-26T13:45:00;100639.38;;;11.29;100.00
24788;BME280;12883;52.662;5.196;2023-03-26T13:47:31;100645.09;;;11.26;100.00
24788;BME280;12883;52.662;5.196;2023-03-26T13:52:52;100632.84;;;11.12;100.00
24788;BME280;12883;52.662;5.196;2023-03-26T13:55:34;100644.50;;;10.98;100.00
24788;BME280;12883;52.662;5.196;2023-03-26T14:01:02;100603.03;;;11.10;100.00
24788;BME280;12883;52.662;5.196;2023-03-26T14:25:36;100682.09;;;11.21;100.00
24788;BME280;12883;52.662;5.196;2023-03-26T14:28:30;100686.78;;;10.99;94.74
24788;BME280;12883;52.662;5.196;2023-03-26T14:31:12;100681.28;;;11.07;94.97
24788;BME280;12883;52.662;5.196;2023-03-26T14:42:21;100697.81;;;11.03;98.68
24788;BME280;12883;52.662;5.196;2023-03-26T14:53:40;100707.63;;;11.09;100.00
24788;BME280;12883;52.662;5.196;2023-03-26T15:01:27;100732.94;;;10.92;100.00
24788;BME280;12883;52.662;5.196;2023-03-26T15:04:16;100740.28;;;10.77;96.45
24788;BME280;12883;52.662;5.196;2023-03-26T15:20:32;100773.72;;;10.52;99.66
24788;BME280;12883;52.662;5.196;2023-03-26T15:44:53;100795.66;;;10.33;100.00
24788;BME280;12883;52.662;5.196;2023-03-26T15:53:03;100819.63;;;10.12;94.64
24788;BME280;12883;52.662;5.196;2023-03-26T15:55:51;100820.00;;;10.09;94.39
24788;BME280;12883;52.662;5.196;2023-03-26T15:58:25;100832.28;;;10.10;94.43
24788;BME280;12883;52.662;5.196;2023-03-26T16:03:56;100826.81;;;9.90;95.38
24788;BME280;12883;52.662;5.196;2023-03-26T16:06:50;100857.03;;;9.96;98.75
24788;BME280;12883;52.662;5.196;2023-03-26T16:14:44;100860.13;;;9.72;100.00
24788;BME280;12883;52.662;5.196;2023-03-26T16:17:23;100829.81;;;9.53;100.00
24788;BME280;12883;52.662;5.196;2023-03-26T16:20:14;100874.38;;;9.71;100.00
24788;BME280;12883;52.662;5.196;2023-03-26T16:22:54;100877.22;;;9.69;100.00
24788;BME280;12883;52.662;5.196;2023-03-26T16:25:33;100877.34;;;9.61;100.00
24788;BME280;12883;52.662;5.196;2023-03-26T16:30:33;100891.78;;;9.59;100.00
24788;BME280;12883;52.662;5.196;2023-03-26T16:33:21;100893.34;;;9.47;97.59
24788;BME280;12883;52.662;5.196;2023-03-26T16:36:05;100899.06;;;9.51;99.72
24788;BME280;12883;52.662;5.196;2023-03-26T16:38:47;100896.66;;;9.35;98.14
24788;BME280;12883;52.662;5.196;2023-03-26T16:41:23;100905.94;;;9.45;100.00
24788;BME280;12883;52.662;5.196;2023-03-26T16:43:57;100917.03;;;9.34;99.23
24788;BME280;12883;52.662;5.196;2023-03-26T16:46:41;100921.63;;;9.26;96.49
24788;BME280;12883;52.662;5.196;2023-03-26T16:49:34;100925.19;;;9.18;96.42
24788;BME280;12883;52.662;5.196;2023-03-26T16:52:22;100929.44;;;9.13;96.37
24788;BME280;12883;52.662;5.196;2023-03-26T16:55:11;100932.00;;;9.06;96.66
24788;BME280;12883;52.662;5.196;2023-03-26T17:05:19;100947.78;;;9.14;100.00
24788;BME280;12883;52.662;5.196;2023-03-26T17:16:41;100974.19;;;8.93;100.00
24788;BME280;12883;52.662;5.196;2023-03-26T17:22:04;100937.47;;;8.55;100.00
24788;BME280;12883;52.662;5.196;2023-03-26T17:24:52;100989.16;;;8.72;100.00
24788;BME280;12883;52.662;5.196;2023-03-26T17:27:26;100994.28;;;8.73;100.00
24788;BME280;12883;52.662;5.196;2023-03-26T17:30:29;101001.09;;;8.82;100.00
24788;BME280;12883;52.662;5.196;2023-03-26T17:35:42;100999.09;;;8.55;100.00
24788;BME280;12883;52.662;5.196;2023-03-26T17:40:58;101022.16;;;8.61;100.00
24788;BME280;12883;52.662;5.196;2023-03-26T17:43:45;101024.28;;;8.51;100.00
24788;BME280;12883;52.662;5.196;2023-03-26T17:46:19;101034.28;;;8.41;100.00
24788;BME280;12883;52.662;5.196;2023-03-26T17:48:52;101032.63;;;8.40;100.00
24788;BME280;12883;52.662;5.196;2023-03-26T17:51:33;101038.16;;;8.31;100.00
24788;BME280;12883;52.662;5.196;2023-03-26T17:54:06;101050.00;;;8.20;100.00
24788;BME280;12883;52.662;5.196;2023-03-26T17:56:33;101047.69;;;8.17;100.00
24788;BME280;12883;52.662;5.196;2023-03-26T17:59:02;101047.75;;;8.09;100.00
24788;BME280;12883;52.662;5.196;2023-03-26T18:01:38;101061.31;;;8.06;100.00
24788;BME280;12883;52.662;5.196;2023-03-26T18:04:10;101046.06;;;7.94;100.00
24788;BME280;12883;52.662;5.196;2023-03-26T18:07:02;101071.56;;;8.01;100.00
24788;BME280;12883;52.662;5.196;2023-03-26T18:17:42;101086.28;;;7.81;100.00